Time;durP1;ratioP1;P1;durP2;ratioP2;P2;SDS_P1;SDS_P2;PMS_P1;PMS_P2;Temp;Humidity;BMP_temperature;BMP_pressure;BME280_temperature;BME280_humidity;BME280_pressure;Samples;Min_cycle;Max_cycle;Signal;HPM_P1;HPM_P2
2022/06/01 05:44:45;;;;;;;5.25;2.60;;;;;;;12.35;76.73;101449.72;5025122;28;122064;-35
2022/06/01 05:47:11;;;;;;;8.57;2.83;;;;;;;12.35;76.36;101450.59;5013289;28;96515;-34
2022/06/01 05:49:36;;;;;;;7.97;3.13;;;;;;;12.37;77.34;101455.94;5012493;28;97845;-35
2022/06/01 05:52:02;;;;;;;6.45;3.00;;;;;;;12.40;76.63;101455.78;5012652;28;99267;-34
2022/06/01 05:54:27;;;;;;;9.23;3.55;;;;;;;12.39;76.85;101460.31;5012932;28;96572;-35
2022/06/01 05:56:52;;;;;;;8.18;4.00;;;;;;;12.33;77.86;101458.84;5012965;28;96819;-34
2022/06/01 05:59:18;;;;;;;7.30;3.42;;;;;;;12.32;76.75;101467.06;5012548;28;97342;-34
2022/06/01 06:01:43;;;;;;;10.75;3.58;;;;;;;12.41;76.41;101468.38;5012498;28;99574;-34
2022/06/01 06:04:09;;;;;;;5.85;3.17;;;;;;;12.41;76.35;101460.22;5012182;28;96646;-34
2022/06/01 06:06:35;;;;;;;11.93;3.80;;;;;;;12.48;76.89;101470.63;5013284;28;96819;-34
2022/06/01 06:09:05;;;;;;;7.70;3.63;;;;;;;12.50;76.09;101465.13;5012221;28;98954;-35
2022/06/01 06:11:34;;;;;;;12.68;4.00;;;;;;;12.53;75.84;101473.06;5012166;28;97840;-34
2022/06/01 06:14:00;;;;;;;9.15;4.05;;;;;;;12.53;76.02;101464.91;4994065;28;96763;-34
2022/06/01 06:16:28;;;;;;;8.05;3.30;;;;;;;12.68;76.02;101482.16;5012848;28;96750;-34
2022/06/01 06:18:56;;;;;;;14.07;4.55;;;;;;;12.68;76.80;101482.16;4993380;28;101509;-35
2022/06/01 06:21:22;;;;;;;10.05;4.25;;;;;;;12.68;75.91;101491.19;4993352;28;101404;-35
2022/06/01 06:23:48;;;;;;;9.13;4.32;;;;;;;12.69;76.10;101486.63;4994230;28;96594;-35
2022/06/01 06:26:13;;;;;;;10.88;3.88;;;;;;;12.78;76.14;101494.22;5012730;28;96754;-35
2022/06/01 06:28:39;;;;;;;8.07;3.55;;;;;;;12.82;77.33;101492.19;5012543;28;97487;-35
2022/06/01 06:31:04;;;;;;;8.60;4.10;;;;;;;12.78;76.08;101485.22;5012255;28;99386;-35
2022/06/01 06:33:30;;;;;;;8.15;3.78;;;;;;;12.86;76.29;101501.91;5012489;28;96686;-34
2022/06/01 06:35:58;;;;;;;6.88;3.38;;;;;;;12.77;76.41;101488.88;5012626;28;96781;-35
2022/06/01 06:38:26;;;;;;;7.90;3.13;;;;;;;12.76;77.08;101501.59;4993629;28;100896;-35
2022/06/01 06:40:54;;;;;;;12.20;4.05;;;;;;;12.78;76.39;101498.81;4994032;28;101186;-35
2022/06/01 06:43:20;;;;;;;9.15;4.28;;;;;;;13.03;76.37;101495.44;4994220;28;96732;-35
2022/06/01 06:45:49;;;;;;;11.38;4.63;;;;;;;13.24;75.58;101499.56;5013818;28;96890;-35
2022/06/01 06:48:14;;;;;;;8.25;3.92;;;;;;;13.51;75.59;101501.53;5027492;28;101112;-35
2022/06/01 06:50:39;;;;;;;7.93;3.38;;;;;;;13.72;74.63;101496.56;5011897;28;97301;-35
2022/06/01 06:53:05;;;;;;;7.28;3.60;;;;;;;13.89;74.07;101488.19;5012105;28;96832;-35
2022/06/01 06:55:30;;;;;;;9.38;3.40;;;;;;;14.12;72.89;101504.88;5012644;28;96762;-34
2022/06/01 06:57:56;;;;;;;8.65;4.05;;;;;;;14.15;73.14;101489.19;5011979;28;97511;-35
2022/06/01 07:00:21;;;;;;;7.55;3.83;;;;;;;14.26;72.00;101496.66;5012118;28;97744;-35
2022/06/01 07:02:46;;;;;;;7.07;3.47;;;;;;;14.28;72.25;101511.06;5011591;28;96630;-35
2022/06/01 07:06:08;;;;;;;9.07;3.47;;;;;;;14.40;72.38;101504.78;5011857;28;96687;-35
2022/06/01 07:07:57;;;;;;;5.75;3.17;;;;;;;14.50;72.59;101515.09;5011840;28;98964;-35
2022/06/01 07:10:22;;;;;;;10.27;3.33;;;;;;;14.35;73.07;101517.84;5011414;28;99272;-34
2022/06/01 07:12:48;;;;;;;8.40;3.40;;;;;;;14.22;73.29;101520.50;5011731;28;96715;-34
2022/06/01 07:15:13;;;;;;;6.18;3.00;;;;;;;14.12;73.06;101524.81;5012079;28;96946;-34
2022/06/01 07:17:38;;;;;;;7.10;3.03;;;;;;;13.99;73.18;101522.03;5011686;28;97990;-34
2022/06/01 07:20:04;;;;;;;7.97;3.17;;;;;;;14.06;73.23;101513.44;5011662;28;98636;-34
2022/06/01 07:22:30;;;;;;;5.50;2.83;;;;;;;14.39;72.91;101516.66;5010452;28;96556;-34
2022/06/01 07:24:55;;;;;;;6.45;2.92;;;;;;;14.62;71.21;101527.91;5011936;28;96936;-34
2022/06/01 07:27:20;;;;;;;10.20;3.10;;;;;;;14.84;71.98;101525.44;5010977;28;99243;-34
2022/06/01 07:29:46;;;;;;;4.70;2.50;;;;;;;14.81;71.34;101517.50;5011604;28;97226;-34
2022/06/01 07:32:11;;;;;;;10.57;2.90;;;;;;;14.74;71.27;101527.06;5011763;28;96730;-34
2022/06/01 07:34:37;;;;;;;4.07;2.47;;;;;;;14.88;71.47;101523.41;5011334;28;96820;-34
2022/06/01 07:43:05;;;;;;;8.52;2.88;;;;;;;14.85;70.00;101532.66;5010009;28;101428;-35
2022/06/01 07:45:16;;;;;;;4.20;2.38;;;;;;;15.42;68.80;101523.25;5011802;28;96535;-35
2022/06/01 07:47:41;;;;;;;5.03;2.78;;;;;;;15.27;69.21;101533.38;5011551;28;97632;-34
2022/06/01 07:50:08;;;;;;;5.70;2.58;;;;;;;15.19;69.16;101524.88;5011517;28;97800;-35
2022/06/01 07:52:34;;;;;;;6.10;2.35;;;;;;;15.37;69.19;101532.72;4992769;28;97110;-34
2022/06/01 07:54:59;;;;;;;4.53;2.38;;;;;;;15.49;68.29;101535.47;5011406;28;96808;-35
2022/06/01 07:57:24;;;;;;;4.90;1.98;;;;;;;15.41;68.12;101534.28;5011256;28;98044;-35
2022/06/01 07:59:50;;;;;;;2.60;1.75;;;;;;;15.56;68.13;101527.69;5011108;28;97837;-34
2022/06/01 08:02:15;;;;;;;4.40;2.20;;;;;;;15.81;67.18;101535.03;5011628;28;96533;-34
2022/06/01 08:04:41;;;;;;;4.13;1.73;;;;;;;16.01;66.12;101525.38;5014878;28;96682;-34
2022/06/01 08:07:06;;;;;;;3.08;1.73;;;;;;;16.24;65.54;101544.69;5014935;28;97470;-34
2022/06/01 08:09:32;;;;;;;4.20;1.63;;;;;;;16.09;65.49;101533.03;5015109;28;97351;-34
2022/06/01 08:14:41;;;;;;;2.03;1.23;;;;;;;16.31;65.06;101521.38;5014787;28;96661;-34
2022/06/01 08:17:06;;;;;;;1.63;1.00;;;;;;;16.65;64.47;101537.94;5014405;28;97428;-34
2022/06/01 08:19:32;;;;;;;2.75;1.40;;;;;;;16.78;63.27;101525.09;5014563;28;97788;-34
2022/06/01 08:21:57;;;;;;;3.42;1.65;;;;;;;16.60;63.50;101530.09;5014572;28;96582;-34
2022/06/01 08:24:23;;;;;;;3.20;1.17;;;;;;;16.60;63.53;101534.69;5014511;28;96798;-34
2022/06/01 08:26:49;;;;;;;2.60;1.42;;;;;;;16.52;60.15;101525.22;5014054;28;98005;-34
2022/06/01 08:29:23;;;;;;;3.42;1.40;;;;;;;16.71;64.00;101535.63;4996225;28;100886;-34
2022/06/01 08:31:48;;;;;;;1.95;0.85;;;;;;;16.69;63.14;101532.13;5014093;28;96847;-34
2022/06/01 08:34:16;;;;;;;1.92;1.15;;;;;;;16.62;62.52;101527.25;5014678;28;96776;-34
2022/06/01 08:36:41;;;;;;;1.80;1.20;;;;;;;16.41;62.68;101540.69;5012524;28;101134;-34
2022/06/01 08:39:06;;;;;;;1.90;1.20;;;;;;;16.45;62.82;101548.53;5014171;28;97752;-34
2022/06/01 08:41:38;;;;;;;2.90;1.40;;;;;;;16.66;62.87;101539.69;5013572;28;96586;-34
2022/06/01 08:44:15;;;;;;;1.83;1.13;;;;;;;16.90;62.59;101531.47;4995832;28;97113;-34
2022/06/01 08:46:40;;;;;;;1.55;1.15;;;;;;;17.31;61.69;101541.09;5031198;28;100702;-34
2022/06/01 08:49:12;;;;;;;2.72;1.13;;;;;;;17.38;60.72;101548.69;5033843;28;99269;-34
2022/06/01 08:51:37;;;;;;;2.13;0.88;;;;;;;17.23;60.74;101543.53;5032243;28;96810;-34
2022/06/01 08:54:03;;;;;;;1.92;0.95;;;;;;;17.44;59.04;101546.44;5034487;28;96712;-34
2022/06/01 08:56:40;;;;;;;3.70;1.08;;;;;;;17.62;59.21;101545.84;5015704;28;100961;-34
2022/06/01 08:59:26;;;;;;;1.52;0.88;;;;;;;17.81;57.03;101545.28;5032785;28;100717;-34
2022/06/01 09:01:57;;;;;;;1.25;0.80;;;;;;;17.91;58.38;101542.66;5015902;28;96742;-34
2022/06/01 09:04:30;;;;;;;1.48;0.98;;;;;;;17.89;58.35;101557.50;5032416;28;96731;-34
2022/06/01 09:07:15;;;;;;;0.68;0.52;;;;;;;17.69;58.47;101556.34;5033273;28;99529;-34
2022/06/01 09:10:07;;;;;;;1.65;1.00;;;;;;;17.75;57.92;101548.47;5032210;28;101140;-34
2022/06/01 09:12:33;;;;;;;2.38;0.90;;;;;;;18.11;58.08;101553.84;5015103;28;96907;-34
2022/06/01 09:15:09;;;;;;;1.05;0.80;;;;;;;18.29;56.85;101565.19;5014398;28;96753;-34
2022/06/01 09:17:36;;;;;;;1.00;0.70;;;;;;;18.28;55.46;101555.22;5015400;28;101369;-34
2022/06/01 09:22:46;;;;;;;4.57;1.00;;;;;;;18.40;56.84;101562.41;5034153;28;96428;-34
2022/06/01 09:25:19;;;;;;;0.80;0.77;;;;;;;18.41;56.23;101567.78;5033573;28;96964;-34
2022/06/01 09:27:52;;;;;;;3.63;0.73;;;;;;;18.62;56.51;101577.97;5031755;28;103151;-34
2022/06/01 09:30:18;;;;;;;0.50;0.43;;;;;;;18.79;55.11;101573.84;5033281;28;97833;-34
2022/06/01 09:33:03;;;;;;;1.48;0.70;;;;;;;18.82;55.19;101566.19;5031652;28;97083;-34
2022/06/01 09:35:39;;;;;;;1.70;0.80;;;;;;;18.88;53.48;101567.56;5033007;28;96614;-34
2022/06/01 09:38:18;;;;;;;1.02;0.63;;;;;;;18.60;56.02;101564.38;5015088;28;101020;-34
2022/06/01 09:40:44;;;;;;;0.77;0.60;;;;;;;18.59;55.91;101573.63;5015011;28;100688;-34
2022/06/01 09:43:25;;;;;;;1.77;0.50;;;;;;;18.84;54.85;101579.78;5033506;28;96763;-34
2022/06/01 09:45:53;;;;;;;0.85;0.50;;;;;;;19.08;55.02;101579.56;5021044;28;96750;-34
2022/06/01 09:48:36;;;;;;;2.22;0.70;;;;;;;19.33;53.77;101582.94;5011447;28;100817;-34
2022/06/01 09:51:18;;;;;;;0.98;0.57;;;;;;;19.44;52.18;101578.25;4995313;28;100857;-34
2022/06/01 09:53:52;;;;;;;0.38;0.38;;;;;;;19.29;53.64;101577.72;4995046;28;96664;-34
2022/06/01 09:56:44;;;;;;;0.77;0.57;;;;;;;19.46;51.86;101589.13;4994686;28;96724;-34
2022/06/01 10:08:25;;;;;;;0.75;0.60;;;;;;;19.39;51.04;101576.91;5012310;28;96587;-34
2022/06/01 10:11:01;;;;;;;;;;;;;;;19.54;51.45;101589.31;5012845;28;97809;-34
2022/06/01 10:13:34;;;;;;;0.40;0.30;;;;;;;19.67;52.09;101586.38;5012563;28;99268;-34
2022/06/01 10:16:12;;;;;;;0.82;0.70;;;;;;;19.58;52.18;101600.91;4994690;28;97105;-34
2022/06/01 10:18:40;;;;;;;0.40;0.40;;;;;;;19.29;52.83;101594.19;5013294;28;96824;-34
2022/06/01 10:21:11;;;;;;;1.33;0.47;;;;;;;18.85;52.00;101590.66;4994337;28;101726;-34
2022/06/01 10:23:42;;;;;;;1.13;0.53;;;;;;;18.68;52.83;101605.75;4994404;28;100925;-34
2022/06/01 10:26:39;;;;;;;1.23;0.35;;;;;;;18.52;52.81;101609.91;5011604;28;96498;-34
2022/06/01 10:29:13;;;;;;;1.33;0.57;;;;;;;18.53;53.51;101597.94;4958068;28;97255;-34
2022/06/01 10:31:55;;;;;;;0.63;0.32;;;;;;;18.70;54.05;101608.38;4993841;28;101029;-34
2022/06/01 10:34:35;;;;;;;2.05;0.30;;;;;;;18.71;52.76;101606.50;4994395;28;101084;-34
2022/06/01 10:37:04;;;;;;;1.58;0.63;;;;;;;18.82;53.38;101617.47;4994390;28;96636;-34
2022/06/01 10:39:35;;;;;;;0.30;0.30;;;;;;;18.80;53.29;101617.59;5012249;28;96899;-34
2022/06/01 10:42:03;;;;;;;1.55;0.60;;;;;;;18.71;53.27;101618.38;4994029;28;100835;-34
2022/06/01 10:45:08;;;;;;;0.75;0.57;;;;;;;18.70;52.38;101626.72;5012413;28;96858;-33
2022/06/01 10:47:54;;;;;;;1.42;0.52;;;;;;;18.45;52.45;101626.03;4994314;28;96606;-34
2022/06/01 10:50:24;;;;;;;0.90;0.43;;;;;;;18.45;52.96;101626.03;5010498;28;96944;-35
2022/06/01 10:53:06;;;;;;;1.10;0.57;;;;;;;18.57;52.99;101632.38;5010012;28;101310;-34
2022/06/01 10:55:36;;;;;;;0.57;0.40;;;;;;;18.31;53.00;101638.13;5011925;28;99207;-34
2022/06/01 10:58:02;;;;;;;0.73;0.57;;;;;;;18.08;53.99;101631.75;4994074;28;96622;-34
2022/06/01 11:00:47;;;;;;;0.82;0.30;;;;;;;17.96;52.63;101639.09;4994088;28;96831;-35
2022/06/01 11:03:40;;;;;;;0.88;0.60;;;;;;;17.85;54.66;101639.06;4993888;28;101330;-34
2022/06/01 11:06:31;;;;;;;0.77;0.55;;;;;;;18.05;54.00;101634.75;5012019;28;98033;-34
2022/06/01 11:09:23;;;;;;;1.03;0.80;;;;;;;18.33;53.47;101636.13;4982374;28;96912;-34
2022/06/01 11:12:04;;;;;;;0.93;0.63;;;;;;;18.58;52.34;101620.38;4994015;28;96713;-34
2022/06/01 11:14:48;;;;;;;1.20;0.55;;;;;;;18.65;53.24;101643.56;5012203;28;97309;-34
2022/06/01 11:17:33;;;;;;;0.68;0.43;;;;;;;18.78;52.45;101644.34;4993539;28;100936;-34
2022/06/01 11:20:07;;;;;;;1.00;0.45;;;;;;;19.03;51.88;101643.13;5011435;28;96589;-34
2022/06/01 11:22:48;;;;;;;1.08;0.50;;;;;;;19.41;51.02;101633.47;5010288;28;96865;-34
2022/06/01 11:25:28;;;;;;;0.93;0.32;;;;;;;19.49;49.88;101638.31;5011476;28;99122;-34
2022/06/01 11:28:22;;;;;;;2.13;0.57;;;;;;;19.42;50.79;101643.44;4993535;28;100720;-34
2022/06/01 11:31:03;;;;;;;1.05;0.57;;;;;;;19.60;49.90;101649.25;4982840;28;97048;-35
2022/06/01 11:33:49;;;;;;;0.98;0.65;;;;;;;19.57;50.67;101654.13;5011745;28;96672;-35
2022/06/01 11:36:35;;;;;;;0.55;0.40;;;;;;;19.82;50.67;101656.50;5010127;28;101052;-35
2022/06/01 11:39:06;;;;;;;0.70;0.40;;;;;;;19.76;50.08;101653.41;5013516;28;101043;-35
2022/06/01 11:41:37;;;;;;;0.98;0.50;;;;;;;19.42;51.31;101657.19;5015317;28;96695;-35
2022/06/01 11:44:11;;;;;;;0.50;0.47;;;;;;;19.15;50.34;101656.81;5015130;28;96683;-35
2022/06/01 11:46:44;;;;;;;2.20;0.40;;;;;;;19.15;49.83;101665.06;5014141;28;98101;-34
2022/06/01 11:49:25;;;;;;;1.05;0.52;;;;;;;19.48;50.48;101664.91;4996815;28;101393;-35
2022/06/01 11:51:51;;;;;;;0.70;0.47;;;;;;;19.69;49.84;101655.84;5014947;28;96543;-35
2022/06/01 11:54:35;;;;;;;0.80;0.60;;;;;;;19.91;49.18;101650.19;5014905;28;96983;-34
2022/06/01 11:57:23;;;;;;;0.50;0.50;;;;;;;20.02;50.30;101656.63;4996568;28;100987;-35
2022/06/01 12:00:11;;;;;;;0.65;0.40;;;;;;;20.03;47.63;101653.75;4996757;28;101094;-35
2022/06/01 12:02:43;;;;;;;1.67;0.70;;;;;;;19.63;48.99;101656.34;4996871;28;98011;-35
2022/06/01 12:05:28;;;;;;;1.40;0.80;;;;;;;19.30;49.66;101655.50;5015367;28;96701;-35
2022/06/01 12:07:58;;;;;;;1.25;0.77;;;;;;;19.33;49.14;101655.25;4995725;28;101502;-35
2022/06/01 12:10:51;;;;;;;1.63;0.77;;;;;;;19.31;49.89;101644.41;5013032;28;100594;-35
2022/06/01 12:13:25;;;;;;;1.30;0.65;;;;;;;19.62;49.24;101660.13;5002393;28;97018;-35
2022/06/01 12:16:18;;;;;;;0.60;0.50;;;;;;;19.81;48.91;101671.28;5014474;28;96749;-35
2022/06/01 12:19:22;;;;;;;2.58;0.68;;;;;;;19.58;48.32;101675.97;5014275;28;99552;-35
2022/06/01 12:22:01;;;;;;;1.48;0.63;;;;;;;19.12;47.86;101670.81;5009550;28;97813;-34
2022/06/01 12:30:06;;;;;;;1.05;0.60;;;;;;;19.58;48.04;101672.38;5013238;28;97032;-35
2022/06/01 12:32:58;;;;;;;0.60;0.38;;;;;;;19.73;48.98;101684.81;4996083;28;100993;-35
2022/06/01 12:35:25;;;;;;;1.55;0.70;;;;;;;19.46;48.82;101660.56;5012448;28;96820;-35
2022/06/01 12:37:58;;;;;;;1.25;0.73;;;;;;;19.29;49.10;101664.75;4996251;28;96744;-35
2022/06/01 12:40:25;;;;;;;0.98;0.70;;;;;;;19.12;49.36;101681.81;4995507;28;101431;-34
2022/06/01 12:42:57;;;;;;;1.95;0.77;;;;;;;19.26;49.10;101665.91;4995618;28;100758;-35
2022/06/01 12:45:38;;;;;;;0.93;0.50;;;;;;;19.40;48.23;101677.56;5013832;28;96864;-35
2022/06/01 12:48:15;;;;;;;1.40;0.77;;;;;;;19.60;48.34;101656.63;4995860;28;96773;-35
2022/06/01 12:50:50;;;;;;;1.77;1.10;;;;;;;19.58;48.35;101680.63;4995720;28;101311;-35
2022/06/01 12:53:20;;;;;;;2.47;1.48;;;;;;;19.16;49.41;101675.91;5013717;28;97422;-35
2022/06/01 12:55:46;;;;;;;4.63;1.58;;;;;;;18.93;49.92;101680.59;4995979;28;97094;-35
2022/06/01 12:58:22;;;;;;;2.72;1.48;;;;;;;18.89;50.21;101685.47;4996269;28;96603;-35
2022/06/01 13:00:53;;;;;;;3.90;1.75;;;;;;;18.82;49.80;101677.88;4995792;28;98941;-35
2022/06/01 13:03:21;;;;;;;3.60;1.80;;;;;;;18.84;49.83;101695.97;4995727;28;100764;-35
2022/06/01 13:05:52;;;;;;;3.15;1.33;;;;;;;18.98;49.32;101685.72;5013179;28;96896;-35
2022/06/01 13:08:22;;;;;;;3.05;1.52;;;;;;;18.95;50.26;101685.94;4995749;28;97120;-35
2022/06/01 13:10:48;;;;;;;4.22;1.90;;;;;;;18.75;49.27;101693.06;4995353;28;101107;-35
2022/06/01 13:13:18;;;;;;;4.60;2.22;;;;;;;18.61;51.00;101691.47;5013574;28;97818;-35
2022/06/01 13:15:53;;;;;;;3.38;1.75;;;;;;;18.60;50.94;101681.50;4995581;28;96711;-35
2022/06/01 13:18:21;;;;;;;3.40;1.98;;;;;;;18.97;51.00;101708.66;5013749;28;96568;-35
2022/06/01 13:20:55;;;;;;;5.00;2.00;;;;;;;19.00;49.50;101694.69;4995257;28;101542;-35
2022/06/01 13:23:33;;;;;;;3.97;2.10;;;;;;;18.77;49.81;101691.97;4995740;28;101054;-35
2022/06/01 13:26:04;;;;;;;3.88;1.80;;;;;;;18.96;50.85;101696.81;4995481;28;96903;-35
2022/06/01 13:28:29;;;;;;;4.35;1.45;;;;;;;19.06;50.30;101699.66;4995514;28;96726;-35
2022/06/01 13:30:58;;;;;;;4.75;1.70;;;;;;;19.25;50.00;101699.84;5012585;28;97231;-35
2022/06/01 13:33:29;;;;;;;3.90;1.70;;;;;;;19.32;49.14;101700.22;4995003;28;101134;-35
2022/06/01 13:36:00;;;;;;;2.53;1.33;;;;;;;19.29;49.20;101698.59;5013524;28;96561;-35
2022/06/01 13:38:41;;;;;;;1.87;1.17;;;;;;;19.15;48.92;101696.16;5013250;28;96785;-35
2022/06/01 13:41:16;;;;;;;3.70;1.70;;;;;;;19.00;50.21;101698.31;4994991;28;100808;-35
2022/06/01 13:43:47;;;;;;;3.33;1.60;;;;;;;19.00;49.14;101706.56;5011629;28;100972;-35
2022/06/01 13:46:18;;;;;;;2.60;1.42;;;;;;;18.82;48.95;101699.84;5012798;28;96639;-35
2022/06/01 13:48:55;;;;;;;4.75;1.65;;;;;;;18.86;49.92;101707.69;4995464;28;96766;-35
2022/06/01 13:51:39;;;;;;;2.45;1.58;;;;;;;18.87;49.90;101703.06;4994979;28;101176;-34
2022/06/01 13:54:36;;;;;;;2.63;1.65;;;;;;;18.94;49.56;101714.41;4994942;28;100800;-35
2022/06/01 13:57:24;;;;;;;3.88;1.77;;;;;;;18.82;49.66;101725.41;4978556;28;96909;-35
2022/06/01 14:00:05;;;;;;;3.63;1.85;;;;;;;18.45;50.61;101714.69;4994416;28;96738;-35
2022/06/01 14:02:37;;;;;;;3.67;2.37;;;;;;;18.24;50.66;101716.41;5012742;28;99581;-35
2022/06/01 14:05:13;;;;;;;4.40;1.52;;;;;;;18.08;51.41;101715.88;4994547;28;100763;-35
2022/06/01 14:08:07;;;;;;;1.90;1.38;;;;;;;17.98;51.52;101723.97;4994831;28;96689;-35
2022/06/01 14:10:46;;;;;;;4.30;1.13;;;;;;;18.03;51.02;101735.44;5006336;28;97500;-35
2022/06/01 14:13:12;;;;;;;2.88;1.38;;;;;;;17.95;51.92;101733.31;4994231;28;101442;-35
2022/06/01 14:15:39;;;;;;;2.90;1.42;;;;;;;17.82;52.08;101736.13;4994883;28;101262;-35
2022/06/01 14:18:07;;;;;;;1.67;1.30;;;;;;;17.62;51.90;101742.25;4994663;28;96466;-35
2022/06/01 14:20:33;;;;;;;2.20;1.20;;;;;;;17.49;52.30;101735.97;4994526;28;97006;-35
2022/06/01 14:22:58;;;;;;;3.88;1.52;;;;;;;17.49;52.89;101749.66;5011985;28;97983;-35
2022/06/01 14:30:51;;;;;;;2.30;1.20;;;;;;;17.78;52.12;101748.31;5012562;28;96556;-35
2022/06/01 14:33:17;;;;;;;3.53;1.45;;;;;;;17.79;52.56;101741.81;5011933;28;99444;-35
2022/06/01 14:35:43;;;;;;;2.20;1.15;;;;;;;17.82;52.35;101747.09;5012157;28;98897;-35
2022/06/01 14:38:08;;;;;;;1.83;1.23;;;;;;;17.81;52.31;101764.53;5012479;28;96539;-35
2022/06/01 14:40:34;;;;;;;2.53;1.38;;;;;;;17.77;52.32;101762.97;5012861;28;96790;-34
2022/06/01 14:43:07;;;;;;;3.53;1.20;;;;;;;17.73;52.73;101753.28;5012054;28;99490;-35
2022/06/01 14:45:32;;;;;;;2.85;1.23;;;;;;;17.70;52.52;101750.75;5011532;28;97880;-34
2022/06/01 14:48:07;;;;;;;1.75;1.02;;;;;;;17.53;52.76;101748.44;5011556;28;97072;-35
2022/06/01 14:50:33;;;;;;;2.85;1.40;;;;;;;17.47;53.16;101751.63;5011419;28;96802;-35
2022/06/01 14:53:06;;;;;;;2.38;1.42;;;;;;;17.49;53.63;101774.31;5011922;28;97267;-35
2022/06/01 14:55:31;;;;;;;2.83;1.25;;;;;;;17.51;53.33;101775.06;5011848;28;98976;-35
2022/06/01 14:57:59;;;;;;;3.58;1.48;;;;;;;17.59;53.24;101775.34;5012306;28;96619;-35
2022/06/01 15:00:24;;;;;;;7.20;1.60;;;;;;;17.62;53.48;101770.53;5010478;28;96809;-35
2022/06/01 15:02:53;;;;;;;2.58;1.40;;;;;;;17.60;53.19;101778.00;5011897;28;97468;-35
2022/06/01 15:05:20;;;;;;;2.30;1.30;;;;;;;17.53;53.07;101762.16;5010866;28;101201;-35
2022/06/01 15:07:45;;;;;;;2.58;1.58;;;;;;;17.66;53.12;101775.75;5010641;28;96643;-35
2022/06/01 15:10:11;;;;;;;3.05;1.48;;;;;;;17.64;53.89;101773.16;5012055;28;96729;-35
2022/06/01 15:12:38;;;;;;;3.22;1.55;;;;;;;17.61;52.88;101768.78;5011968;28;99701;-34
2022/06/01 15:15:04;;;;;;;2.35;1.50;;;;;;;17.48;52.66;101778.06;5015175;28;97818;-34
2022/06/01 15:17:31;;;;;;;2.70;1.85;;;;;;;17.44;53.71;101774.66;4997295;28;97575;-34
2022/06/01 15:19:56;;;;;;;2.47;1.58;;;;;;;17.40;53.74;101771.31;5015069;28;97049;-34
2022/06/01 15:22:22;;;;;;;3.72;1.50;;;;;;;17.39;53.72;101775.00;4996859;28;100914;-34
2022/06/01 15:24:47;;;;;;;2.88;1.08;;;;;;;17.35;53.78;101772.63;5015026;28;99193;-34
2022/06/01 15:27:19;;;;;;;2.05;1.17;;;;;;;17.32;53.69;101776.47;5015399;28;96595;-34
2022/06/01 15:40:41;;;;;;;1.60;0.88;;;;;;;16.91;54.00;101806.94;5013551;28;96432;-34
2022/06/01 15:43:06;;;;;;;1.95;1.10;;;;;;;16.70;54.37;101790.16;5015039;28;98828;-34
2022/06/01 15:45:42;;;;;;;4.55;1.23;;;;;;;16.56;54.67;101796.63;5022229;28;101105;-34
2022/06/01 15:48:09;;;;;;;1.77;0.90;;;;;;;16.51;54.84;101802.44;5035184;28;96625;-34
2022/06/01 15:50:40;;;;;;;1.05;0.80;;;;;;;16.45;55.07;101810.22;5016759;28;96663;-34
2022/06/01 15:53:06;;;;;;;2.03;1.13;;;;;;;16.43;55.30;101810.31;5033577;28;101053;-34
2022/06/01 15:55:32;;;;;;;3.20;1.25;;;;;;;16.42;55.67;101807.69;5016904;28;101503;-34
2022/06/01 15:57:57;;;;;;;1.80;1.23;;;;;;;16.42;55.87;101807.69;5016712;28;96675;-34
2022/06/01 16:00:25;;;;;;;6.55;1.27;;;;;;;16.42;55.74;101814.03;5035082;28;96844;-34
2022/06/01 16:02:52;;;;;;;3.97;1.40;;;;;;;16.50;56.10;101814.38;5034115;28;99558;-34
2022/06/01 16:05:18;;;;;;;1.88;1.30;;;;;;;16.52;55.78;101808.78;5034759;28;98276;-34
2022/06/01 16:07:44;;;;;;;3.63;1.45;;;;;;;16.59;55.95;101817.41;5016784;28;96641;-34
2022/06/01 16:10:09;;;;;;;2.22;1.40;;;;;;;16.59;55.61;101795.53;5034979;28;96772;-34
2022/06/01 16:12:35;;;;;;;2.17;1.30;;;;;;;16.65;55.68;101822.47;5034471;28;97401;-34
2022/06/01 16:15:01;;;;;;;1.95;1.42;;;;;;;16.63;55.41;101806.13;5033195;28;98078;-34
2022/06/01 16:17:30;;;;;;;2.40;1.25;;;;;;;16.65;55.55;101803.31;5034537;28;96587;-34
2022/06/01 16:19:59;;;;;;;3.33;1.23;;;;;;;16.58;55.39;101799.25;5016833;28;96791;-34
2022/06/01 16:22:25;;;;;;;1.88;1.00;;;;;;;16.39;55.83;101792.38;5016213;28;100992;-34
2022/06/01 16:24:51;;;;;;;1.25;0.98;;;;;;;16.43;55.89;101804.84;5032499;28;100798;-34
2022/06/01 16:27:16;;;;;;;2.25;1.33;;;;;;;16.42;55.82;101810.41;5034265;28;96421;-34
2022/06/01 16:29:44;;;;;;;1.20;0.90;;;;;;;16.30;55.97;101809.41;5034636;28;96440;-34
2022/06/01 16:32:17;;;;;;;1.60;0.80;;;;;;;16.28;55.79;101811.38;5032528;28;100990;-34
2022/06/01 16:34:42;;;;;;;1.35;0.85;;;;;;;16.32;55.89;101818.38;5032895;28;100931;-34
2022/06/01 16:37:08;;;;;;;1.60;0.95;;;;;;;16.28;55.91;101819.56;5034600;28;96669;-34
2022/06/01 16:39:43;;;;;;;1.42;0.80;;;;;;;16.22;55.81;101807.22;5034546;28;97144;-34
2022/06/01 16:42:24;;;;;;;1.27;0.90;;;;;;;16.24;55.67;101818.06;5032675;28;100860;-34
2022/06/01 16:44:53;;;;;;;0.90;0.63;;;;;;;16.26;55.94;101824.31;5033821;28;99410;-34
2022/06/01 16:47:18;;;;;;;1.52;0.77;;;;;;;16.21;56.05;101826.47;5016164;28;96704;-34
2022/06/01 16:49:44;;;;;;;2.10;1.00;;;;;;;16.07;56.22;101816.50;5034198;28;96767;-34
2022/06/01 16:52:09;;;;;;;1.70;1.08;;;;;;;16.01;56.27;101823.25;5032014;28;101325;-34
2022/06/01 16:54:35;;;;;;;1.02;0.82;;;;;;;16.03;56.60;101831.38;5034326;28;97272;-34
2022/06/01 16:57:02;;;;;;;1.10;0.82;;;;;;;15.94;56.48;101835.59;5034121;28;96567;-35
2022/06/01 16:59:31;;;;;;;1.92;0.80;;;;;;;15.93;55.93;101833.84;5032576;28;96930;-34
2022/06/01 17:01:56;;;;;;;1.90;0.82;;;;;;;15.95;56.01;101833.75;5015692;28;101072;-34
2022/06/01 17:04:22;;;;;;;1.10;0.68;;;;;;;15.92;56.08;101834.81;5033990;28;97371;-34
2022/06/01 17:06:48;;;;;;;0.98;0.80;;;;;;;15.85;56.28;101837.13;5034211;28;96597;-34
2022/06/01 17:09:13;;;;;;;1.17;0.73;;;;;;;15.87;56.22;101842.44;5034050;28;96892;-34
2022/06/01 17:11:39;;;;;;;1.10;0.60;;;;;;;15.86;56.48;101833.38;5033353;28;97900;-34
2022/06/01 17:14:06;;;;;;;1.20;0.85;;;;;;;15.74;56.08;101831.50;5033793;28;97231;-34
2022/06/01 17:16:39;;;;;;;0.63;0.47;;;;;;;15.78;56.26;101838.50;5031825;28;97445;-34
2022/06/01 17:19:07;;;;;;;0.73;0.60;;;;;;;15.73;56.37;101835.22;5032235;28;97068;-34
2022/06/01 17:21:36;;;;;;;1.13;0.65;;;;;;;15.67;55.91;101836.47;5032089;28;100885;-34
2022/06/01 17:24:02;;;;;;;0.77;0.73;;;;;;;15.69;56.25;101841.81;5033518;28;97907;-34
2022/06/01 17:26:31;;;;;;;0.68;0.50;;;;;;;15.72;55.94;101847.09;5032064;28;96586;-34
2022/06/01 17:29:00;;;;;;;1.00;0.73;;;;;;;15.81;56.05;101853.81;5033396;28;96665;-34
2022/06/01 17:31:26;;;;;;;1.27;0.57;;;;;;;15.80;56.46;101849.31;5031528;28;101135;-34
2022/06/01 17:33:52;;;;;;;1.27;0.60;;;;;;;15.82;55.97;101848.22;5032451;28;100703;-34
2022/06/01 17:36:18;;;;;;;0.60;0.55;;;;;;;15.79;55.96;101844.84;5031026;27;96643;-34
2022/06/01 17:38:44;;;;;;;1.13;0.68;;;;;;;15.82;56.28;101861.03;5033116;28;96855;-34
2022/06/01 17:41:10;;;;;;;7.13;0.75;;;;;;;15.80;56.25;101850.22;5031186;28;99846;-34
2022/06/01 17:43:35;;;;;;;1.30;0.60;;;;;;;15.78;56.06;101852.19;5033325;28;97392;-34
2022/06/01 17:46:01;;;;;;;0.73;0.40;;;;;;;15.75;55.99;101859.69;5033077;28;96826;-34
2022/06/01 17:48:30;;;;;;;2.90;0.80;;;;;;;15.73;56.27;101858.91;5033420;28;96754;-34
2022/06/01 17:50:57;;;;;;;0.82;0.65;;;;;;;15.59;56.47;101851.59;5014903;28;101114;-34
2022/06/01 17:53:23;;;;;;;2.00;0.68;;;;;;;15.57;56.08;101865.38;5014674;28;100942;-34
2022/06/01 17:55:49;;;;;;;2.13;0.63;;;;;;;15.61;56.18;101877.84;5015036;28;96569;-34
2022/06/01 17:58:17;;;;;;;2.28;0.82;;;;;;;15.56;55.83;101871.78;5015316;28;96840;-34
2022/06/01 18:00:45;;;;;;;1.45;0.60;;;;;;;15.51;55.96;101860.31;5031632;28;101019;-34
2022/06/01 18:03:13;;;;;;;1.77;0.85;;;;;;;15.51;56.15;101880.28;5032692;28;99290;-34
2022/06/01 18:05:40;;;;;;;2.13;0.70;;;;;;;15.41;56.39;101881.00;5014425;28;97084;-34
2022/06/01 18:08:15;;;;;;;1.00;0.57;;;;;;;15.48;56.22;101885.09;5032881;28;97177;-34